createdAt,value
2018-03-18T00:02:16.158Z,84.15
2018-03-18T00:04:46.952Z,85.74
2018-03-18T00:07:17.716Z,85.55
2018-03-18T00:09:48.472Z,84.40
2018-03-18T00:12:19.205Z,84.50
2018-03-18T00:14:49.980Z,85.51
2018-03-18T00:17:20.733Z,85.61
2018-03-18T00:19:51.510Z,85.48
2018-03-18T00:22:22.270Z,86.31
2018-03-18T00:24:53.093Z,86.78
2018-03-18T00:27:23.948Z,84.96
2018-03-18T00:29:54.924Z,85.19
2018-03-18T00:32:25.697Z,85.56
2018-03-18T00:34:56.490Z,85.54
2018-03-18T00:37:27.244Z,85.35
2018-03-18T00:39:58.162Z,85.44
2018-03-18T00:42:29.061Z,85.15
2018-03-18T00:44:59.853Z,86.69
2018-03-18T00:47:30.630Z,86.47
2018-03-18T00:50:01.424Z,85.53
2018-03-18T00:52:32.188Z,85.12
2018-03-18T00:55:02.964Z,86.41
2018-03-18T00:57:33.708Z,85.76
2018-03-18T01:00:04.510Z,85.40
2018-03-18T01:02:35.272Z,86.03
2018-03-18T01:05:06.037Z,84.63
2018-03-18T01:07:36.793Z,85.52
2018-03-18T01:10:07.579Z,85.59
2018-03-18T01:12:38.329Z,86.13
2018-03-18T01:15:09.168Z,86.39
2018-03-18T01:17:39.922Z,86.21
2018-03-18T01:20:17.607Z,87.29
2018-03-18T01:22:48.344Z,86.22
2018-03-18T01:25:19.121Z,86.16
2018-03-18T01:27:49.871Z,87.29
2018-03-18T01:30:20.632Z,87.00
2018-03-18T01:32:51.380Z,86.84
2018-03-18T01:35:22.161Z,86.78
2018-03-18T01:37:52.922Z,87.37
2018-03-18T01:40:23.711Z,86.20
2018-03-18T01:42:54.462Z,86.34
2018-03-18T01:45:25.228Z,86.62
2018-03-18T01:47:55.980Z,86.50
2018-03-18T01:50:26.756Z,86.92
2018-03-18T01:53:10.008Z,87.23
2018-03-18T01:55:40.816Z,87.44
2018-03-18T01:58:11.559Z,86.56
2018-03-18T02:00:42.332Z,86.47
2018-03-18T02:03:13.095Z,86.43
2018-03-18T02:05:43.859Z,86.71
2018-03-18T02:08:14.671Z,86.10
2018-03-18T02:10:45.401Z,85.99
2018-03-18T02:13:16.161Z,85.63
2018-03-18T02:15:46.948Z,84.55
2018-03-18T02:18:17.699Z,85.04
2018-03-18T02:20:48.457Z,85.70
2018-03-18T02:23:19.195Z,85.93
2018-03-18T02:25:49.967Z,86.46
2018-03-18T02:28:20.733Z,85.72
2018-03-18T02:30:51.496Z,85.91
2018-03-18T02:33:22.245Z,85.62
2018-03-18T02:35:53.018Z,86.22
2018-03-18T02:38:23.765Z,85.80
2018-03-18T02:40:54.554Z,85.42
2018-03-18T02:43:25.309Z,85.60
2018-03-18T02:45:56.071Z,85.21
2018-03-18T02:48:26.821Z,85.02
2018-03-18T02:50:57.578Z,85.05
2018-03-18T02:53:28.361Z,83.86
2018-03-18T02:55:59.114Z,83.67
2018-03-18T02:58:29.857Z,83.66
2018-03-18T03:01:00.670Z,84.68
2018-03-18T03:03:31.424Z,84.37
2018-03-18T03:06:02.179Z,83.86
2018-03-18T03:08:32.933Z,84.18
2018-03-18T03:11:03.700Z,84.29
2018-03-18T03:13:34.461Z,83.74
2018-03-18T03:16:05.261Z,83.58
2018-03-18T03:18:36.012Z,84.69
2018-03-18T03:21:06.800Z,83.11
2018-03-18T03:23:37.547Z,84.04
2018-03-18T03:26:08.312Z,83.31
2018-03-18T03:28:39.054Z,83.57
2018-03-18T03:31:09.826Z,84.13
2018-03-18T03:33:40.573Z,84.18
2018-03-18T03:36:11.328Z,84.61
2018-03-18T03:38:42.073Z,83.50
2018-03-18T03:41:12.842Z,84.05
2018-03-18T03:43:43.588Z,84.05
2018-03-18T03:46:14.348Z,84.08
2018-03-18T03:48:45.105Z,84.20
2018-03-18T03:51:15.880Z,84.74
2018-03-18T03:53:46.616Z,84.78
2018-03-18T03:56:17.388Z,83.98
2018-03-18T03:58:48.136Z,83.93
2018-03-18T04:01:18.910Z,84.73
2018-03-18T04:03:49.670Z,84.51
2018-03-18T04:06:20.458Z,84.08
2018-03-18T04:08:51.213Z,84.83
2018-03-18T04:11:21.984Z,85.22
2018-03-18T04:13:52.737Z,86.11
2018-03-18T04:16:23.509Z,86.76
2018-03-18T04:18:54.252Z,86.69
2018-03-18T04:21:25.037Z,86.34
2018-03-18T04:23:55.808Z,86.29
2018-03-18T04:26:26.569Z,86.71
2018-03-18T04:28:57.312Z,86.86
2018-03-18T04:31:28.097Z,86.15
2018-03-18T04:33:58.854Z,86.50
2018-03-18T04:36:29.624Z,85.61
2018-03-18T04:39:00.367Z,85.41
2018-03-18T04:41:31.129Z,85.76
2018-03-18T04:44:01.875Z,86.02
2018-03-18T04:46:32.653Z,86.21
2018-03-18T04:49:03.405Z,85.90
2018-03-18T04:51:34.168Z,85.79
2018-03-18T04:54:04.896Z,86.10
2018-03-18T04:56:35.660Z,85.94
2018-03-18T04:59:06.408Z,85.65
2018-03-18T05:01:37.165Z,87.22
2018-03-18T05:04:07.913Z,87.62
2018-03-18T05:06:38.690Z,86.71
2018-03-18T05:09:09.417Z,86.56
2018-03-18T05:11:40.168Z,86.27
2018-03-18T05:14:10.913Z,85.56
2018-03-18T05:16:41.661Z,85.83
2018-03-18T05:19:12.405Z,86.31
2018-03-18T05:21:43.183Z,85.69
2018-03-18T05:24:13.937Z,86.60
2018-03-18T05:26:44.763Z,86.41
2018-03-18T05:29:15.505Z,85.42
2018-03-18T05:31:46.292Z,84.63
2018-03-18T05:34:17.036Z,84.41
2018-03-18T05:36:47.795Z,84.21
2018-03-18T05:39:18.564Z,82.89
2018-03-18T05:41:49.325Z,84.33
2018-03-18T05:44:20.064Z,84.05
2018-03-18T05:46:50.834Z,83.78
2018-03-18T05:49:21.581Z,83.61
2018-03-18T05:51:52.364Z,83.36
2018-03-18T05:54:24.128Z,83.26
2018-03-18T05:56:54.916Z,82.63
2018-03-18T05:59:25.706Z,82.64
2018-03-18T06:01:56.444Z,82.79
2018-03-18T06:04:27.185Z,82.30
2018-03-18T06:06:57.952Z,82.63
2018-03-18T06:09:28.705Z,83.25
2018-03-18T06:11:59.463Z,83.79
2018-03-18T06:14:30.200Z,83.31
2018-03-18T06:17:00.963Z,83.56
2018-03-18T06:19:31.710Z,83.28
2018-03-18T06:22:02.473Z,83.26
2018-03-18T06:24:33.216Z,82.69
2018-03-18T06:27:03.997Z,83.67
2018-03-18T06:29:34.736Z,84.05
2018-03-18T06:32:05.542Z,83.42
2018-03-18T06:34:36.292Z,83.33
2018-03-18T06:37:07.060Z,82.78
2018-03-18T06:39:37.812Z,82.44
2018-03-18T06:42:08.563Z,83.35
2018-03-18T06:44:39.308Z,82.20
2018-03-18T06:47:10.086Z,81.10
2018-03-18T06:49:40.832Z,81.89
2018-03-18T06:52:11.593Z,82.24
2018-03-18T06:54:42.352Z,81.26
2018-03-18T06:57:13.132Z,80.78
2018-03-18T06:59:43.874Z,82.14
2018-03-18T07:02:14.620Z,80.95
2018-03-18T07:04:45.379Z,81.08
2018-03-18T07:07:16.152Z,80.76
2018-03-18T07:09:46.891Z,81.85
2018-03-18T07:12:17.661Z,79.95
2018-03-18T07:14:48.400Z,79.10
2018-03-18T07:17:19.141Z,77.42
2018-03-18T07:19:49.892Z,77.57
2018-03-18T07:22:20.659Z,78.33
2018-03-18T07:24:51.443Z,77.53
2018-03-18T07:27:22.224Z,77.68
2018-03-18T07:29:52.965Z,76.89
2018-03-18T07:32:23.712Z,76.70
2018-03-18T07:34:54.453Z,75.28
2018-03-18T07:37:25.228Z,76.11
2018-03-18T07:39:55.968Z,76.00
2018-03-18T07:45:22.285Z,76.07
2018-03-18T07:47:53.132Z,75.18
2018-03-18T07:53:19.288Z,73.02
2018-03-18T07:55:50.026Z,71.98
2018-03-18T07:58:20.897Z,70.95
2018-03-18T08:00:51.656Z,72.85
2018-03-18T08:03:22.422Z,71.38
2018-03-18T08:05:53.176Z,71.17
2018-03-18T08:08:23.950Z,71.98
2018-03-18T08:10:54.720Z,72.75
2018-03-18T08:13:25.516Z,71.81
2018-03-18T08:15:56.272Z,70.08
2018-03-18T08:18:27.057Z,71.75
2018-03-18T08:20:57.819Z,71.17
2018-03-18T08:23:28.620Z,72.22
2018-03-18T08:25:59.403Z,73.30
2018-03-18T08:28:30.169Z,72.58
2018-03-18T08:33:56.107Z,73.01
2018-03-18T08:36:26.877Z,73.26
2018-03-18T08:38:57.657Z,72.09
2018-03-18T08:41:28.472Z,72.42
2018-03-18T08:43:59.204Z,73.00
2018-03-18T08:46:29.953Z,71.83
2018-03-18T08:49:00.740Z,73.09
2018-03-18T08:51:31.493Z,72.33
2018-03-18T08:54:02.268Z,69.75
2018-03-18T08:56:33.016Z,69.10
2018-03-18T08:59:03.809Z,70.61
2018-03-18T09:01:34.556Z,70.27
2018-03-18T09:04:05.329Z,70.66
2018-03-18T09:06:36.099Z,68.62
2018-03-18T09:09:06.860Z,69.45
2018-03-18T09:11:37.623Z,66.09
2018-03-18T09:14:08.373Z,66.91
2018-03-18T09:16:39.142Z,68.49
2018-03-18T09:19:09.928Z,67.67
2018-03-18T09:21:40.680Z,66.48
2018-03-18T09:24:18.294Z,67.30
2018-03-18T09:26:49.055Z,68.10
2018-03-18T09:29:19.816Z,67.94
2018-03-18T09:31:50.583Z,66.86
2018-03-18T09:34:21.340Z,68.05
2018-03-18T09:36:52.098Z,66.84
2018-03-18T09:39:22.914Z,66.67
2018-03-18T09:41:53.681Z,67.36
2018-03-18T09:44:24.466Z,66.35
2018-03-18T09:46:55.216Z,67.24
2018-03-18T09:49:26.011Z,67.14
2018-03-18T09:51:56.781Z,64.73
2018-03-18T09:54:27.560Z,65.99
2018-03-18T09:56:58.332Z,67.16
2018-03-18T09:59:29.092Z,66.08
2018-03-18T10:01:59.839Z,66.64
2018-03-18T10:04:30.617Z,65.95
2018-03-18T10:07:01.403Z,67.99
2018-03-18T10:09:32.221Z,68.88
2018-03-18T10:12:03.154Z,67.84
2018-03-18T10:14:34.202Z,66.39
2018-03-18T10:17:04.984Z,67.98
2018-03-18T10:19:35.772Z,65.87
2018-03-18T10:22:06.532Z,65.65
2018-03-18T10:24:37.383Z,65.55
2018-03-18T10:27:08.137Z,66.96
2018-03-18T10:29:38.901Z,67.20
2018-03-18T10:32:09.657Z,65.58
2018-03-18T10:34:40.468Z,65.64
2018-03-18T10:37:11.234Z,65.17
2018-03-18T10:39:42.008Z,65.34
2018-03-18T10:42:12.772Z,64.85
2018-03-18T10:44:43.560Z,63.82
2018-03-18T10:47:14.313Z,63.88
2018-03-18T10:49:45.097Z,64.91
2018-03-18T10:52:15.864Z,65.37
2018-03-18T10:54:46.615Z,65.60
2018-03-18T10:57:17.377Z,65.63
2018-03-18T10:59:48.144Z,63.45
2018-03-18T11:02:20.886Z,63.32
2018-03-18T11:04:51.649Z,64.22
2018-03-18T11:07:22.392Z,64.67
2018-03-18T11:09:53.158Z,64.48
2018-03-18T11:12:23.900Z,66.13
2018-03-18T11:14:54.661Z,65.34
2018-03-18T11:17:25.396Z,65.10
2018-03-18T11:19:56.145Z,65.65
2018-03-18T11:22:26.894Z,65.11
2018-03-18T11:24:57.685Z,65.12
2018-03-18T11:27:28.425Z,64.35
2018-03-18T11:29:59.185Z,67.33
2018-03-18T11:32:29.925Z,66.56
2018-03-18T11:35:00.702Z,65.77
2018-03-18T11:37:31.448Z,64.73
2018-03-18T11:40:02.193Z,65.05
2018-03-18T11:42:32.970Z,64.92
2018-03-18T11:45:03.738Z,65.28
2018-03-18T11:47:34.477Z,64.53
2018-03-18T11:50:05.239Z,64.64
2018-03-18T11:52:35.999Z,66.84
2018-03-18T11:55:06.785Z,64.55
2018-03-18T11:57:37.525Z,65.46
2018-03-18T12:00:08.525Z,64.62
2018-03-18T12:02:39.270Z,66.35
2018-03-18T12:05:10.017Z,66.22
2018-03-18T12:07:40.803Z,68.32
2018-03-18T12:10:11.608Z,66.02
2018-03-18T12:12:42.387Z,69.13
2018-03-18T12:15:13.148Z,65.61
2018-03-18T12:17:43.889Z,65.81
2018-03-18T12:20:14.656Z,68.23
2018-03-18T12:22:45.534Z,68.10
2018-03-18T12:25:16.626Z,68.58
2018-03-18T12:27:48.372Z,68.65
2018-03-18T12:30:19.149Z,67.61
2018-03-18T12:32:49.905Z,68.49
2018-03-18T12:35:20.665Z,70.28
2018-03-18T12:37:51.413Z,71.10
2018-03-18T12:40:32.073Z,68.67
2018-03-18T12:43:15.165Z,69.79
2018-03-18T12:45:45.929Z,69.74
2018-03-18T12:48:16.729Z,69.20
2018-03-18T12:50:47.466Z,70.97
2018-03-18T12:53:18.210Z,71.20
2018-03-18T12:55:49.977Z,69.29
2018-03-18T12:58:20.712Z,71.35
2018-03-18T13:00:51.473Z,71.17
2018-03-18T13:03:22.209Z,71.82
2018-03-18T13:05:52.969Z,71.76
2018-03-18T13:08:23.700Z,72.78
2018-03-18T13:10:54.468Z,71.13
2018-03-18T13:13:25.229Z,71.65
2018-03-18T13:15:56.001Z,73.09
2018-03-18T13:18:26.732Z,73.46
2018-03-18T13:20:57.496Z,73.19
2018-03-18T13:23:28.220Z,73.37
2018-03-18T13:25:58.978Z,71.81
2018-03-18T13:28:29.709Z,70.21
2018-03-18T13:31:00.461Z,70.11
2018-03-18T13:33:31.209Z,70.08
2018-03-18T13:36:02.009Z,67.45
2018-03-18T13:38:32.752Z,68.24
2018-03-18T13:41:03.524Z,67.98
2018-03-18T13:43:34.269Z,68.53
2018-03-18T13:46:05.020Z,65.70
2018-03-18T13:48:35.768Z,65.61
2018-03-18T13:51:06.543Z,67.12
2018-03-18T13:53:37.269Z,66.47
2018-03-18T13:56:08.063Z,67.55
2018-03-18T13:58:38.848Z,66.81
2018-03-18T14:01:09.785Z,68.14
2018-03-18T14:03:40.546Z,66.96
2018-03-18T14:06:11.293Z,68.26
2018-03-18T14:08:42.045Z,66.10
2018-03-18T14:11:12.793Z,67.09
2018-03-18T14:13:43.527Z,64.81
2018-03-18T14:16:14.281Z,65.33
2018-03-18T14:18:45.640Z,67.50
2018-03-18T14:21:16.444Z,66.07
2018-03-18T14:23:47.182Z,66.60
2018-03-18T14:26:17.957Z,66.90
2018-03-18T14:28:48.721Z,67.38
2018-03-18T14:31:19.497Z,67.47
2018-03-18T14:33:50.249Z,67.81
2018-03-18T14:36:21.028Z,66.76
2018-03-18T14:38:51.764Z,67.86
2018-03-18T14:41:23.683Z,67.19
2018-03-18T14:43:54.475Z,68.06
2018-03-18T14:46:25.220Z,69.94
2018-03-18T14:48:56.020Z,69.66
2018-03-18T14:51:26.777Z,69.16
2018-03-18T14:53:57.522Z,71.01
2018-03-18T14:59:05.960Z,69.91
2018-03-18T15:01:36.705Z,71.61
2018-03-18T15:04:07.613Z,70.46
2018-03-18T15:06:38.369Z,71.69
2018-03-18T15:09:09.120Z,70.98
2018-03-18T15:11:39.877Z,70.34
2018-03-18T15:14:10.633Z,70.79
2018-03-18T15:16:41.392Z,71.69
2018-03-18T15:19:12.125Z,72.79
2018-03-18T15:21:42.874Z,73.55
2018-03-18T15:24:13.691Z,73.95
2018-03-18T15:26:44.445Z,74.10
2018-03-18T15:29:15.172Z,73.83
2018-03-18T15:31:45.940Z,73.35
2018-03-18T15:34:16.784Z,72.82
2018-03-18T15:36:47.676Z,72.27
2018-03-18T15:39:18.529Z,72.42
2018-03-18T15:41:49.325Z,72.34
2018-03-18T15:44:20.091Z,71.99
2018-03-18T15:46:50.883Z,72.69
2018-03-18T15:49:21.701Z,70.76
2018-03-18T15:51:53.535Z,71.65
2018-03-18T15:54:24.401Z,71.28
2018-03-18T15:56:55.194Z,72.09
2018-03-18T15:59:25.992Z,72.09
2018-03-18T16:01:56.989Z,72.58
2018-03-18T16:04:27.725Z,71.33
2018-03-18T16:06:58.483Z,72.41
2018-03-18T16:09:29.361Z,73.10
2018-03-18T16:12:00.156Z,73.85
2018-03-18T16:14:30.925Z,73.96
2018-03-18T16:17:02.120Z,74.81
2018-03-18T16:19:32.996Z,76.35
2018-03-18T16:22:03.768Z,75.30
2018-03-18T16:24:34.654Z,75.62
2018-03-18T16:27:05.436Z,75.28
2018-03-18T16:29:48.596Z,75.47
2018-03-18T16:32:19.479Z,75.80
2018-03-18T16:34:50.281Z,75.20
2018-03-18T16:37:21.040Z,76.34
2018-03-18T16:39:51.814Z,75.21
2018-03-18T16:42:22.561Z,76.13
2018-03-18T16:44:53.420Z,75.39
2018-03-18T16:47:24.176Z,73.84
2018-03-18T16:49:54.954Z,74.88
2018-03-18T16:52:25.708Z,75.73
2018-03-18T16:54:56.501Z,73.26
2018-03-18T16:57:27.273Z,74.16
2018-03-18T16:59:58.025Z,72.73
2018-03-18T17:02:28.790Z,73.21
2018-03-18T17:04:59.524Z,72.95
2018-03-18T17:07:30.395Z,73.06
2018-03-18T17:10:01.188Z,71.57
2018-03-18T17:12:32.038Z,73.26
2018-03-18T17:15:02.811Z,72.15
2018-03-18T17:17:33.605Z,71.40
2018-03-18T17:20:04.448Z,71.52
2018-03-18T17:22:36.348Z,71.45
2018-03-18T17:25:07.161Z,70.76
2018-03-18T17:27:37.921Z,71.22
2018-03-18T17:30:08.665Z,70.04
2018-03-18T17:32:39.461Z,69.84
2018-03-18T17:35:10.200Z,70.39
2018-03-18T17:37:40.983Z,69.58
2018-03-18T17:40:11.732Z,69.58
2018-03-18T17:42:42.480Z,69.50
2018-03-18T17:45:25.504Z,69.29
2018-03-18T17:48:08.829Z,69.28
2018-03-18T17:50:52.850Z,69.80
2018-03-18T17:53:36.112Z,69.08
2018-03-18T17:56:19.319Z,69.23
2018-03-18T17:58:50.068Z,69.39
2018-03-18T18:01:20.829Z,70.22
2018-03-18T18:03:51.560Z,70.00
2018-03-18T18:06:22.300Z,70.08
2018-03-18T18:08:53.244Z,71.12
2018-03-18T18:11:24.313Z,71.92
2018-03-18T18:13:55.114Z,73.57
2018-03-18T18:16:25.882Z,74.70
2018-03-18T18:18:56.657Z,76.45
2018-03-18T18:21:27.434Z,78.16
2018-03-18T18:23:58.220Z,78.70
2018-03-18T18:26:28.965Z,78.99
2018-03-18T18:28:59.738Z,78.63
2018-03-18T18:31:30.476Z,79.96
2018-03-18T18:34:01.262Z,78.63
2018-03-18T18:36:32.022Z,77.61
2018-03-18T18:39:02.813Z,76.43
2018-03-18T18:41:33.572Z,76.38
2018-03-18T18:44:04.325Z,76.54
2018-03-18T18:46:35.065Z,77.86
2018-03-18T18:49:05.871Z,76.43
2018-03-18T18:51:36.608Z,76.53
2018-03-18T18:54:07.364Z,76.25
2018-03-18T18:56:38.100Z,75.37
2018-03-18T18:59:08.849Z,75.69
2018-03-18T19:01:39.610Z,76.17
2018-03-18T19:04:10.357Z,77.01
2018-03-18T19:06:41.124Z,75.63
2018-03-18T19:09:11.877Z,75.97
2018-03-18T19:11:42.637Z,76.56
2018-03-18T19:14:13.400Z,75.86
2018-03-18T19:16:44.136Z,75.17
2018-03-18T19:19:14.892Z,75.07
2018-03-18T19:21:45.673Z,76.30
2018-03-18T19:24:16.510Z,76.10
2018-03-18T19:26:47.239Z,75.65
2018-03-18T19:29:17.980Z,75.05
2018-03-18T19:31:48.712Z,74.89
2018-03-18T19:34:19.481Z,74.76
2018-03-18T19:36:50.233Z,74.81
2018-03-18T19:39:20.984Z,76.07
2018-03-18T19:41:51.804Z,74.60
2018-03-18T19:44:22.566Z,74.70
2018-03-18T19:46:53.300Z,75.96
2018-03-18T19:49:24.048Z,75.64
2018-03-18T19:51:54.833Z,75.60
2018-03-18T19:54:25.568Z,73.67
2018-03-18T19:56:56.321Z,73.60
2018-03-18T19:59:27.063Z,74.41
2018-03-18T20:01:57.792Z,73.45
2018-03-18T20:04:28.552Z,73.76
2018-03-18T20:06:59.353Z,74.00
2018-03-18T20:09:30.092Z,73.64
2018-03-18T20:12:00.848Z,74.72
2018-03-18T20:14:31.604Z,74.38
2018-03-18T20:17:02.376Z,73.04
2018-03-18T20:19:33.149Z,73.59
2018-03-18T20:22:04.104Z,73.63
2018-03-18T20:24:34.956Z,73.87
2018-03-18T20:27:05.720Z,72.93
2018-03-18T20:29:36.459Z,72.89
2018-03-18T20:32:07.188Z,72.75
2018-03-18T20:34:38.056Z,72.26
2018-03-18T20:37:08.850Z,72.28
2018-03-18T20:39:39.612Z,72.16
2018-03-18T20:42:10.404Z,72.72
2018-03-18T20:44:41.191Z,73.78
2018-03-18T20:47:11.947Z,73.89
2018-03-18T20:49:42.697Z,74.13
2018-03-18T20:52:13.440Z,72.84
2018-03-18T20:54:44.185Z,72.60
2018-03-18T20:57:14.925Z,71.20
2018-03-18T20:59:45.708Z,72.19
2018-03-18T21:02:16.444Z,71.17
2018-03-18T21:04:47.188Z,71.95
2018-03-18T21:07:17.909Z,71.80
2018-03-18T21:09:48.648Z,71.09
2018-03-18T21:12:19.373Z,71.42
2018-03-18T21:14:50.113Z,70.96
2018-03-18T21:17:20.857Z,72.61
2018-03-18T21:19:51.600Z,72.52
2018-03-18T21:22:22.332Z,71.67
2018-03-18T21:24:53.084Z,70.59
2018-03-18T21:27:23.808Z,71.18
2018-03-18T21:29:54.574Z,71.13
2018-03-18T21:32:25.321Z,72.41
2018-03-18T21:34:56.073Z,70.96
2018-03-18T21:37:26.837Z,71.43
2018-03-18T21:39:57.600Z,71.09
2018-03-18T21:42:28.353Z,70.31
2018-03-18T21:44:59.129Z,69.89
2018-03-18T21:47:29.864Z,69.91
2018-03-18T21:50:00.665Z,70.18
2018-03-18T21:52:31.413Z,70.65
2018-03-18T21:55:02.181Z,70.60
2018-03-18T21:57:32.924Z,70.04
2018-03-18T22:00:03.693Z,70.65
2018-03-18T22:02:34.465Z,69.76
2018-03-18T22:05:05.260Z,71.28
2018-03-18T22:07:35.996Z,69.68
2018-03-18T22:10:06.745Z,69.78
2018-03-18T22:12:37.485Z,71.09
2018-03-18T22:15:08.238Z,71.15
2018-03-18T22:17:38.972Z,70.35
2018-03-18T22:20:09.712Z,71.53
2018-03-18T22:22:40.444Z,72.30
2018-03-18T22:25:11.188Z,71.33
2018-03-18T22:27:41.928Z,70.21
2018-03-18T22:30:12.672Z,71.25
2018-03-18T22:32:43.448Z,69.90
2018-03-18T22:35:14.217Z,69.99
2018-03-18T22:37:44.952Z,70.47
2018-03-18T22:40:15.700Z,69.43
2018-03-18T22:42:46.444Z,69.14
2018-03-18T22:45:17.185Z,69.53
2018-03-18T22:47:47.944Z,70.53
2018-03-18T22:50:18.697Z,70.08
2018-03-18T22:52:49.440Z,69.51
2018-03-18T22:55:20.201Z,70.00
2018-03-18T22:57:50.924Z,69.05
2018-03-18T23:00:21.680Z,68.64
2018-03-18T23:02:52.424Z,69.39
2018-03-18T23:05:23.169Z,69.01
2018-03-18T23:07:53.915Z,69.51
2018-03-18T23:10:24.668Z,70.14
2018-03-18T23:12:55.425Z,68.64
2018-03-18T23:15:26.165Z,70.04
2018-03-18T23:17:56.897Z,68.96
2018-03-18T23:20:27.673Z,69.16
2018-03-18T23:22:58.401Z,70.20
2018-03-18T23:25:29.152Z,69.69
2018-03-18T23:27:59.900Z,69.11
2018-03-18T23:30:30.656Z,69.83
2018-03-18T23:33:01.387Z,68.99
2018-03-18T23:35:32.141Z,68.98
2018-03-18T23:38:02.888Z,68.94
2018-03-18T23:40:33.661Z,68.99
2018-03-18T23:43:04.396Z,69.01
2018-03-18T23:45:35.149Z,69.18
2018-03-18T23:48:05.889Z,70.13
2018-03-18T23:50:36.652Z,69.55
2018-03-18T23:53:07.381Z,68.48
2018-03-18T23:55:38.134Z,69.60
2018-03-18T23:58:08.873Z,68.61
